sensor_id;sensor_type;location;lat;lon;timestamp;P1;durP1;ratioP1;P2;durP2;ratioP2
60665;SDS011;59128;44.642;21.188;2024-01-06T00:01:41;17.90;;;12.57;;
60665;SDS011;59128;44.642;21.188;2024-01-06T00:04:07;20.98;;;14.32;;
60665;SDS011;59128;44.642;21.188;2024-01-06T00:06:33;22.17;;;15.70;;
60665;SDS011;59128;44.642;21.188;2024-01-06T00:08:59;21.13;;;13.48;;
60665;SDS011;59128;44.642;21.188;2024-01-06T00:11:25;22.17;;;14.93;;
60665;SDS011;59128;44.642;21.188;2024-01-06T00:13:51;26.30;;;17.13;;
60665;SDS011;59128;44.642;21.188;2024-01-06T00:16:18;31.70;;;20.48;;
60665;SDS011;59128;44.642;21.188;2024-01-06T00:18:44;23.92;;;15.98;;
60665;SDS011;59128;44.642;21.188;2024-01-06T00:21:10;24.75;;;16.85;;
60665;SDS011;59128;44.642;21.188;2024-01-06T00:23:36;17.23;;;12.75;;
60665;SDS011;59128;44.642;21.188;2024-01-06T00:26:03;14.53;;;10.40;;
60665;SDS011;59128;44.642;21.188;2024-01-06T00:28:29;15.73;;;9.70;;
60665;SDS011;59128;44.642;21.188;2024-01-06T00:30:55;16.77;;;11.77;;
60665;SDS011;59128;44.642;21.188;2024-01-06T00:33:21;16.55;;;11.45;;
60665;SDS011;59128;44.642;21.188;2024-01-06T00:35:47;17.93;;;12.93;;
60665;SDS011;59128;44.642;21.188;2024-01-06T00:38:13;18.15;;;13.13;;
60665;SDS011;59128;44.642;21.188;2024-01-06T00:40:39;16.08;;;11.70;;
60665;SDS011;59128;44.642;21.188;2024-01-06T00:43:05;11.73;;;8.75;;
60665;SDS011;59128;44.642;21.188;2024-01-06T00:45:31;13.50;;;10.30;;
60665;SDS011;59128;44.642;21.188;2024-01-06T00:47:57;15.60;;;10.73;;
60665;SDS011;59128;44.642;21.188;2024-01-06T00:50:23;12.73;;;9.07;;
60665;SDS011;59128;44.642;21.188;2024-01-06T00:52:49;16.90;;;11.30;;
60665;SDS011;59128;44.642;21.188;2024-01-06T00:55:21;16.00;;;10.38;;
60665;SDS011;59128;44.642;21.188;2024-01-06T00:57:48;13.88;;;10.15;;
60665;SDS011;59128;44.642;21.188;2024-01-06T01:00:14;14.82;;;10.38;;
60665;SDS011;59128;44.642;21.188;2024-01-06T01:02:41;13.43;;;9.40;;
60665;SDS011;59128;44.642;21.188;2024-01-06T01:05:07;14.65;;;10.95;;
60665;SDS011;59128;44.642;21.188;2024-01-06T01:07:33;13.00;;;8.98;;
60665;SDS011;59128;44.642;21.188;2024-01-06T01:09:59;16.70;;;11.65;;
60665;SDS011;59128;44.642;21.188;2024-01-06T01:12:25;14.43;;;9.20;;
60665;SDS011;59128;44.642;21.188;2024-01-06T01:14:52;17.20;;;10.82;;
60665;SDS011;59128;44.642;21.188;2024-01-06T01:17:18;16.13;;;11.00;;
60665;SDS011;59128;44.642;21.188;2024-01-06T01:19:44;18.83;;;13.25;;
60665;SDS011;59128;44.642;21.188;2024-01-06T01:22:10;25.83;;;19.15;;
60665;SDS011;59128;44.642;21.188;2024-01-06T01:24:36;18.20;;;12.27;;
60665;SDS011;59128;44.642;21.188;2024-01-06T01:27:02;15.52;;;11.63;;
60665;SDS011;59128;44.642;21.188;2024-01-06T01:29:29;21.23;;;15.25;;
60665;SDS011;59128;44.642;21.188;2024-01-06T01:31:55;19.73;;;15.17;;
60665;SDS011;59128;44.642;21.188;2024-01-06T01:34:21;18.38;;;13.32;;
60665;SDS011;59128;44.642;21.188;2024-01-06T01:36:47;15.98;;;12.80;;
60665;SDS011;59128;44.642;21.188;2024-01-06T01:39:13;17.37;;;13.17;;
60665;SDS011;59128;44.642;21.188;2024-01-06T01:41:39;17.38;;;12.13;;
60665;SDS011;59128;44.642;21.188;2024-01-06T01:44:05;15.43;;;11.82;;
60665;SDS011;59128;44.642;21.188;2024-01-06T01:46:31;23.60;;;18.40;;
60665;SDS011;59128;44.642;21.188;2024-01-06T01:48:58;22.83;;;17.02;;
60665;SDS011;59128;44.642;21.188;2024-01-06T01:51:34;15.48;;;11.10;;
60665;SDS011;59128;44.642;21.188;2024-01-06T01:54:04;30.73;;;23.42;;
60665;SDS011;59128;44.642;21.188;2024-01-06T01:56:31;26.33;;;20.33;;
60665;SDS011;59128;44.642;21.188;2024-01-06T01:59:11;18.73;;;15.40;;
60665;SDS011;59128;44.642;21.188;2024-01-06T02:01:37;16.08;;;13.35;;
60665;SDS011;59128;44.642;21.188;2024-01-06T02:04:04;19.65;;;15.00;;
60665;SDS011;59128;44.642;21.188;2024-01-06T02:06:30;22.20;;;17.27;;
60665;SDS011;59128;44.642;21.188;2024-01-06T02:08:56;19.48;;;16.17;;
60665;SDS011;59128;44.642;21.188;2024-01-06T02:11:22;14.70;;;11.02;;
60665;SDS011;59128;44.642;21.188;2024-01-06T02:13:48;13.43;;;11.40;;
60665;SDS011;59128;44.642;21.188;2024-01-06T02:16:14;14.38;;;11.52;;
60665;SDS011;59128;44.642;21.188;2024-01-06T02:18:40;11.20;;;9.07;;
60665;SDS011;59128;44.642;21.188;2024-01-06T02:21:06;8.67;;;6.63;;
60665;SDS011;59128;44.642;21.188;2024-01-06T02:23:34;13.40;;;10.55;;
60665;SDS011;59128;44.642;21.188;2024-01-06T02:26:00;11.33;;;9.40;;
60665;SDS011;59128;44.642;21.188;2024-01-06T02:28:26;10.63;;;8.30;;
60665;SDS011;59128;44.642;21.188;2024-01-06T02:30:52;10.27;;;7.93;;
60665;SDS011;59128;44.642;21.188;2024-01-06T02:33:19;11.75;;;8.73;;
60665;SDS011;59128;44.642;21.188;2024-01-06T02:35:45;10.10;;;7.80;;
60665;SDS011;59128;44.642;21.188;2024-01-06T02:38:11;13.18;;;9.80;;
60665;SDS011;59128;44.642;21.188;2024-01-06T02:40:37;13.90;;;10.75;;
60665;SDS011;59128;44.642;21.188;2024-01-06T02:43:03;10.18;;;6.80;;
60665;SDS011;59128;44.642;21.188;2024-01-06T02:45:30;11.80;;;8.48;;
60665;SDS011;59128;44.642;21.188;2024-01-06T02:47:56;14.70;;;10.95;;
60665;SDS011;59128;44.642;21.188;2024-01-06T02:50:22;12.13;;;9.38;;
60665;SDS011;59128;44.642;21.188;2024-01-06T02:52:48;14.98;;;11.45;;
60665;SDS011;59128;44.642;21.188;2024-01-06T02:55:14;16.48;;;11.18;;
60665;SDS011;59128;44.642;21.188;2024-01-06T02:57:40;16.80;;;13.13;;
60665;SDS011;59128;44.642;21.188;2024-01-06T03:00:07;14.30;;;11.32;;
60665;SDS011;59128;44.642;21.188;2024-01-06T03:02:33;12.00;;;9.20;;
60665;SDS011;59128;44.642;21.188;2024-01-06T03:05:01;14.68;;;11.45;;
60665;SDS011;59128;44.642;21.188;2024-01-06T03:07:27;15.13;;;10.53;;
60665;SDS011;59128;44.642;21.188;2024-01-06T03:09:53;18.95;;;13.55;;
60665;SDS011;59128;44.642;21.188;2024-01-06T03:12:19;19.50;;;13.00;;
60665;SDS011;59128;44.642;21.188;2024-01-06T03:14:45;19.30;;;12.57;;
60665;SDS011;59128;44.642;21.188;2024-01-06T03:17:11;13.25;;;8.98;;
60665;SDS011;59128;44.642;21.188;2024-01-06T03:19:37;21.30;;;14.30;;
60665;SDS011;59128;44.642;21.188;2024-01-06T03:22:03;15.52;;;10.25;;
60665;SDS011;59128;44.642;21.188;2024-01-06T03:24:29;14.93;;;9.90;;
60665;SDS011;59128;44.642;21.188;2024-01-06T03:26:56;12.70;;;9.82;;
60665;SDS011;59128;44.642;21.188;2024-01-06T03:29:22;16.83;;;11.98;;
60665;SDS011;59128;44.642;21.188;2024-01-06T03:31:48;17.05;;;11.73;;
60665;SDS011;59128;44.642;21.188;2024-01-06T03:34:14;15.95;;;12.73;;
60665;SDS011;59128;44.642;21.188;2024-01-06T03:36:40;17.98;;;13.43;;
60665;SDS011;59128;44.642;21.188;2024-01-06T03:39:06;11.73;;;9.65;;
60665;SDS011;59128;44.642;21.188;2024-01-06T03:41:33;13.23;;;9.73;;
60665;SDS011;59128;44.642;21.188;2024-01-06T03:43:59;16.35;;;12.70;;
60665;SDS011;59128;44.642;21.188;2024-01-06T03:46:25;14.10;;;9.20;;
60665;SDS011;59128;44.642;21.188;2024-01-06T03:48:51;14.15;;;10.00;;
60665;SDS011;59128;44.642;21.188;2024-01-06T03:51:17;17.42;;;12.88;;
60665;SDS011;59128;44.642;21.188;2024-01-06T03:53:43;13.07;;;9.10;;
60665;SDS011;59128;44.642;21.188;2024-01-06T03:56:09;13.38;;;10.23;;
60665;SDS011;59128;44.642;21.188;2024-01-06T03:58:35;10.07;;;7.68;;
60665;SDS011;59128;44.642;21.188;2024-01-06T04:01:02;11.23;;;7.78;;
60665;SDS011;59128;44.642;21.188;2024-01-06T04:03:28;11.18;;;8.00;;
60665;SDS011;59128;44.642;21.188;2024-01-06T04:05:54;6.88;;;5.40;;
60665;SDS011;59128;44.642;21.188;2024-01-06T04:08:20;9.98;;;6.88;;
60665;SDS011;59128;44.642;21.188;2024-01-06T04:10:46;12.75;;;9.05;;
60665;SDS011;59128;44.642;21.188;2024-01-06T04:13:12;7.07;;;4.50;;
60665;SDS011;59128;44.642;21.188;2024-01-06T04:15:38;8.93;;;5.90;;
60665;SDS011;59128;44.642;21.188;2024-01-06T04:18:04;8.68;;;5.68;;
60665;SDS011;59128;44.642;21.188;2024-01-06T04:20:31;9.30;;;6.95;;
60665;SDS011;59128;44.642;21.188;2024-01-06T04:22:57;6.88;;;4.47;;
60665;SDS011;59128;44.642;21.188;2024-01-06T04:25:23;9.13;;;6.43;;
60665;SDS011;59128;44.642;21.188;2024-01-06T04:27:49;9.25;;;5.55;;
60665;SDS011;59128;44.642;21.188;2024-01-06T04:30:15;9.23;;;6.57;;
60665;SDS011;59128;44.642;21.188;2024-01-06T04:32:42;9.20;;;6.97;;
60665;SDS011;59128;44.642;21.188;2024-01-06T04:35:09;9.48;;;6.05;;
60665;SDS011;59128;44.642;21.188;2024-01-06T04:37:35;8.70;;;6.30;;
60665;SDS011;59128;44.642;21.188;2024-01-06T04:40:01;7.60;;;5.50;;
60665;SDS011;59128;44.642;21.188;2024-01-06T04:42:27;8.90;;;5.88;;
60665;SDS011;59128;44.642;21.188;2024-01-06T04:44:53;9.23;;;6.43;;
60665;SDS011;59128;44.642;21.188;2024-01-06T04:47:19;8.43;;;5.37;;
60665;SDS011;59128;44.642;21.188;2024-01-06T04:49:45;7.90;;;5.10;;
60665;SDS011;59128;44.642;21.188;2024-01-06T04:52:11;7.63;;;5.65;;
60665;SDS011;59128;44.642;21.188;2024-01-06T04:54:37;8.63;;;5.65;;
60665;SDS011;59128;44.642;21.188;2024-01-06T04:57:04;11.77;;;8.02;;
60665;SDS011;59128;44.642;21.188;2024-01-06T04:59:30;7.77;;;5.57;;
60665;SDS011;59128;44.642;21.188;2024-01-06T05:01:57;11.35;;;7.32;;
60665;SDS011;59128;44.642;21.188;2024-01-06T05:04:23;11.27;;;7.83;;
60665;SDS011;59128;44.642;21.188;2024-01-06T05:06:50;12.00;;;9.18;;
60665;SDS011;59128;44.642;21.188;2024-01-06T05:09:17;9.00;;;6.87;;
60665;SDS011;59128;44.642;21.188;2024-01-06T05:11:43;9.35;;;6.53;;
60665;SDS011;59128;44.642;21.188;2024-01-06T05:14:09;11.68;;;9.18;;
60665;SDS011;59128;44.642;21.188;2024-01-06T05:16:35;10.15;;;6.53;;
60665;SDS011;59128;44.642;21.188;2024-01-06T05:19:01;9.67;;;6.40;;
60665;SDS011;59128;44.642;21.188;2024-01-06T05:21:28;10.55;;;6.82;;
60665;SDS011;59128;44.642;21.188;2024-01-06T05:23:54;10.37;;;7.23;;
60665;SDS011;59128;44.642;21.188;2024-01-06T05:26:20;9.00;;;6.28;;
60665;SDS011;59128;44.642;21.188;2024-01-06T05:28:46;9.63;;;7.07;;
60665;SDS011;59128;44.642;21.188;2024-01-06T05:31:12;9.90;;;6.47;;
60665;SDS011;59128;44.642;21.188;2024-01-06T05:33:39;10.43;;;6.60;;
60665;SDS011;59128;44.642;21.188;2024-01-06T05:36:05;10.63;;;8.07;;
60665;SDS011;59128;44.642;21.188;2024-01-06T05:38:31;10.13;;;6.78;;
60665;SDS011;59128;44.642;21.188;2024-01-06T05:40:57;9.88;;;6.93;;
60665;SDS011;59128;44.642;21.188;2024-01-06T05:43:23;8.27;;;5.90;;
60665;SDS011;59128;44.642;21.188;2024-01-06T05:45:50;9.60;;;6.60;;
60665;SDS011;59128;44.642;21.188;2024-01-06T05:48:16;10.77;;;7.07;;
60665;SDS011;59128;44.642;21.188;2024-01-06T05:50:42;8.85;;;6.00;;
60665;SDS011;59128;44.642;21.188;2024-01-06T05:53:08;8.02;;;5.45;;
60665;SDS011;59128;44.642;21.188;2024-01-06T05:55:35;8.48;;;5.88;;
60665;SDS011;59128;44.642;21.188;2024-01-06T05:58:01;8.50;;;5.57;;
60665;SDS011;59128;44.642;21.188;2024-01-06T06:00:27;9.32;;;6.07;;
60665;SDS011;59128;44.642;21.188;2024-01-06T06:02:56;8.43;;;5.30;;
60665;SDS011;59128;44.642;21.188;2024-01-06T06:05:22;10.80;;;6.80;;
60665;SDS011;59128;44.642;21.188;2024-01-06T06:07:48;9.85;;;6.22;;
60665;SDS011;59128;44.642;21.188;2024-01-06T06:10:14;12.43;;;8.57;;
60665;SDS011;59128;44.642;21.188;2024-01-06T06:12:46;22.45;;;14.88;;
60665;SDS011;59128;44.642;21.188;2024-01-06T06:15:12;12.15;;;8.75;;
60665;SDS011;59128;44.642;21.188;2024-01-06T06:17:39;10.70;;;7.00;;
60665;SDS011;59128;44.642;21.188;2024-01-06T06:20:05;14.90;;;9.30;;
60665;SDS011;59128;44.642;21.188;2024-01-06T06:22:32;8.82;;;6.75;;
60665;SDS011;59128;44.642;21.188;2024-01-06T06:24:58;10.80;;;7.38;;
60665;SDS011;59128;44.642;21.188;2024-01-06T06:27:24;10.75;;;7.70;;
60665;SDS011;59128;44.642;21.188;2024-01-06T06:29:51;10.50;;;7.60;;
60665;SDS011;59128;44.642;21.188;2024-01-06T06:32:17;10.38;;;7.57;;
60665;SDS011;59128;44.642;21.188;2024-01-06T06:34:43;15.98;;;11.02;;
60665;SDS011;59128;44.642;21.188;2024-01-06T06:37:09;9.45;;;6.80;;
60665;SDS011;59128;44.642;21.188;2024-01-06T06:39:36;12.30;;;7.00;;
60665;SDS011;59128;44.642;21.188;2024-01-06T06:42:02;11.05;;;7.57;;
60665;SDS011;59128;44.642;21.188;2024-01-06T06:44:28;9.57;;;6.13;;
60665;SDS011;59128;44.642;21.188;2024-01-06T06:46:55;8.68;;;5.82;;
60665;SDS011;59128;44.642;21.188;2024-01-06T06:49:21;8.57;;;5.28;;
60665;SDS011;59128;44.642;21.188;2024-01-06T06:51:47;8.32;;;5.97;;
60665;SDS011;59128;44.642;21.188;2024-01-06T06:54:16;8.48;;;5.45;;
60665;SDS011;59128;44.642;21.188;2024-01-06T06:56:42;8.60;;;5.93;;
60665;SDS011;59128;44.642;21.188;2024-01-06T06:59:09;12.90;;;7.68;;
60665;SDS011;59128;44.642;21.188;2024-01-06T07:01:35;10.05;;;6.55;;
60665;SDS011;59128;44.642;21.188;2024-01-06T07:04:01;19.15;;;11.90;;
60665;SDS011;59128;44.642;21.188;2024-01-06T07:06:28;15.80;;;10.23;;
60665;SDS011;59128;44.642;21.188;2024-01-06T07:08:54;16.13;;;10.48;;
60665;SDS011;59128;44.642;21.188;2024-01-06T07:11:20;16.50;;;10.15;;
60665;SDS011;59128;44.642;21.188;2024-01-06T07:13:46;44.15;;;25.08;;
60665;SDS011;59128;44.642;21.188;2024-01-06T07:16:12;65.30;;;35.27;;
60665;SDS011;59128;44.642;21.188;2024-01-06T07:18:38;64.60;;;37.53;;
60665;SDS011;59128;44.642;21.188;2024-01-06T07:21:05;37.30;;;23.98;;
60665;SDS011;59128;44.642;21.188;2024-01-06T07:23:34;28.50;;;18.33;;
60665;SDS011;59128;44.642;21.188;2024-01-06T07:26:00;18.90;;;11.55;;
60665;SDS011;59128;44.642;21.188;2024-01-06T07:28:27;20.25;;;13.68;;
60665;SDS011;59128;44.642;21.188;2024-01-06T07:30:54;15.15;;;9.52;;
60665;SDS011;59128;44.642;21.188;2024-01-06T07:33:20;29.40;;;20.50;;
60665;SDS011;59128;44.642;21.188;2024-01-06T07:35:46;30.00;;;19.98;;
60665;SDS011;59128;44.642;21.188;2024-01-06T07:38:12;21.98;;;14.27;;
60665;SDS011;59128;44.642;21.188;2024-01-06T07:40:38;19.88;;;13.68;;
60665;SDS011;59128;44.642;21.188;2024-01-06T07:43:05;15.50;;;10.50;;
60665;SDS011;59128;44.642;21.188;2024-01-06T07:45:31;13.82;;;9.55;;
60665;SDS011;59128;44.642;21.188;2024-01-06T07:48:00;14.80;;;9.85;;
60665;SDS011;59128;44.642;21.188;2024-01-06T07:50:27;16.48;;;10.20;;
60665;SDS011;59128;44.642;21.188;2024-01-06T07:52:55;15.50;;;11.10;;
60665;SDS011;59128;44.642;21.188;2024-01-06T07:55:23;15.88;;;10.00;;
60665;SDS011;59128;44.642;21.188;2024-01-06T07:57:49;14.23;;;9.23;;
60665;SDS011;59128;44.642;21.188;2024-01-06T08:00:15;17.25;;;11.07;;
60665;SDS011;59128;44.642;21.188;2024-01-06T08:02:41;14.70;;;10.47;;
60665;SDS011;59128;44.642;21.188;2024-01-06T08:05:07;17.83;;;12.95;;
60665;SDS011;59128;44.642;21.188;2024-01-06T08:07:34;16.23;;;10.82;;
60665;SDS011;59128;44.642;21.188;2024-01-06T08:10:00;24.77;;;16.23;;
60665;SDS011;59128;44.642;21.188;2024-01-06T08:12:29;24.05;;;16.00;;
60665;SDS011;59128;44.642;21.188;2024-01-06T08:14:55;18.87;;;12.90;;
60665;SDS011;59128;44.642;21.188;2024-01-06T08:17:22;16.67;;;10.70;;
60665;SDS011;59128;44.642;21.188;2024-01-06T08:19:48;16.50;;;12.05;;
60665;SDS011;59128;44.642;21.188;2024-01-06T08:22:14;16.37;;;10.17;;
60665;SDS011;59128;44.642;21.188;2024-01-06T08:24:40;21.65;;;15.93;;
60665;SDS011;59128;44.642;21.188;2024-01-06T08:27:06;19.83;;;13.98;;
60665;SDS011;59128;44.642;21.188;2024-01-06T08:29:32;14.90;;;10.10;;
60665;SDS011;59128;44.642;21.188;2024-01-06T08:31:58;15.35;;;9.23;;
60665;SDS011;59128;44.642;21.188;2024-01-06T08:34:24;16.90;;;11.57;;
60665;SDS011;59128;44.642;21.188;2024-01-06T08:36:50;17.80;;;12.70;;
60665;SDS011;59128;44.642;21.188;2024-01-06T08:39:16;29.05;;;20.63;;
60665;SDS011;59128;44.642;21.188;2024-01-06T08:41:42;22.77;;;16.05;;
60665;SDS011;59128;44.642;21.188;2024-01-06T08:44:08;27.37;;;16.93;;
60665;SDS011;59128;44.642;21.188;2024-01-06T08:46:34;24.63;;;16.77;;
60665;SDS011;59128;44.642;21.188;2024-01-06T08:49:00;30.92;;;20.33;;
60665;SDS011;59128;44.642;21.188;2024-01-06T08:51:27;27.30;;;18.80;;
60665;SDS011;59128;44.642;21.188;2024-01-06T08:53:53;28.88;;;20.77;;
60665;SDS011;59128;44.642;21.188;2024-01-06T08:56:20;35.90;;;24.60;;
60665;SDS011;59128;44.642;21.188;2024-01-06T08:58:46;32.60;;;22.15;;
60665;SDS011;59128;44.642;21.188;2024-01-06T09:01:12;39.83;;;26.85;;
60665;SDS011;59128;44.642;21.188;2024-01-06T09:03:41;29.92;;;20.23;;
60665;SDS011;59128;44.642;21.188;2024-01-06T09:06:07;33.45;;;23.92;;
60665;SDS011;59128;44.642;21.188;2024-01-06T09:08:33;56.53;;;37.72;;
60665;SDS011;59128;44.642;21.188;2024-01-06T09:10:59;30.38;;;21.52;;
60665;SDS011;59128;44.642;21.188;2024-01-06T09:13:25;31.17;;;20.90;;
60665;SDS011;59128;44.642;21.188;2024-01-06T09:15:51;38.65;;;26.63;;
60665;SDS011;59128;44.642;21.188;2024-01-06T09:18:17;37.28;;;26.52;;
60665;SDS011;59128;44.642;21.188;2024-01-06T09:20:43;25.03;;;16.80;;
60665;SDS011;59128;44.642;21.188;2024-01-06T09:23:12;33.20;;;21.38;;
60665;SDS011;59128;44.642;21.188;2024-01-06T09:25:38;43.28;;;26.73;;
60665;SDS011;59128;44.642;21.188;2024-01-06T09:28:07;30.02;;;20.42;;
60665;SDS011;59128;44.642;21.188;2024-01-06T09:30:33;36.10;;;23.85;;
60665;SDS011;59128;44.642;21.188;2024-01-06T09:32:59;36.72;;;22.55;;
60665;SDS011;59128;44.642;21.188;2024-01-06T09:35:25;42.75;;;26.80;;
60665;SDS011;59128;44.642;21.188;2024-01-06T09:37:51;39.88;;;26.60;;
60665;SDS011;59128;44.642;21.188;2024-01-06T09:40:21;46.15;;;30.73;;
60665;SDS011;59128;44.642;21.188;2024-01-06T09:42:48;44.47;;;28.98;;
60665;SDS011;59128;44.642;21.188;2024-01-06T09:45:15;74.43;;;51.00;;
60665;SDS011;59128;44.642;21.188;2024-01-06T09:47:41;46.33;;;29.95;;
60665;SDS011;59128;44.642;21.188;2024-01-06T09:50:10;70.25;;;46.20;;
60665;SDS011;59128;44.642;21.188;2024-01-06T09:52:39;111.57;;;76.57;;
60665;SDS011;59128;44.642;21.188;2024-01-06T09:55:11;62.13;;;42.33;;
60665;SDS011;59128;44.642;21.188;2024-01-06T09:57:38;63.70;;;44.30;;
60665;SDS011;59128;44.642;21.188;2024-01-06T10:00:04;71.88;;;50.72;;
60665;SDS011;59128;44.642;21.188;2024-01-06T10:02:32;61.20;;;42.70;;
60665;SDS011;59128;44.642;21.188;2024-01-06T10:04:58;109.53;;;65.73;;
60665;SDS011;59128;44.642;21.188;2024-01-06T10:07:25;143.88;;;77.15;;
60665;SDS011;59128;44.642;21.188;2024-01-06T10:09:54;81.88;;;51.92;;
60665;SDS011;59128;44.642;21.188;2024-01-06T10:12:24;61.42;;;42.13;;
60665;SDS011;59128;44.642;21.188;2024-01-06T10:14:50;50.38;;;34.33;;
60665;SDS011;59128;44.642;21.188;2024-01-06T10:17:16;69.40;;;47.42;;
60665;SDS011;59128;44.642;21.188;2024-01-06T10:19:46;57.15;;;42.65;;
60665;SDS011;59128;44.642;21.188;2024-01-06T10:22:13;37.33;;;28.60;;
60665;SDS011;59128;44.642;21.188;2024-01-06T10:24:39;31.10;;;24.67;;
60665;SDS011;59128;44.642;21.188;2024-01-06T10:27:05;32.60;;;25.60;;
60665;SDS011;59128;44.642;21.188;2024-01-06T10:29:31;33.95;;;26.08;;
60665;SDS011;59128;44.642;21.188;2024-01-06T10:31:58;47.28;;;36.00;;
60665;SDS011;59128;44.642;21.188;2024-01-06T10:34:24;28.67;;;20.10;;
60665;SDS011;59128;44.642;21.188;2024-01-06T10:36:50;29.52;;;20.02;;
60665;SDS011;59128;44.642;21.188;2024-01-06T10:39:17;20.13;;;14.68;;
60665;SDS011;59128;44.642;21.188;2024-01-06T10:41:44;23.70;;;17.75;;
60665;SDS011;59128;44.642;21.188;2024-01-06T10:44:10;29.52;;;21.23;;
60665;SDS011;59128;44.642;21.188;2024-01-06T10:46:36;26.50;;;19.70;;
60665;SDS011;59128;44.642;21.188;2024-01-06T10:49:05;46.78;;;34.85;;
60665;SDS011;59128;44.642;21.188;2024-01-06T10:51:37;19.88;;;14.70;;
60665;SDS011;59128;44.642;21.188;2024-01-06T10:54:04;18.83;;;15.00;;
60665;SDS011;59128;44.642;21.188;2024-01-06T10:56:37;21.30;;;18.25;;
60665;SDS011;59128;44.642;21.188;2024-01-06T10:59:06;20.35;;;17.50;;
60665;SDS011;59128;44.642;21.188;2024-01-06T11:01:33;14.52;;;12.20;;
60665;SDS011;59128;44.642;21.188;2024-01-06T11:03:59;21.92;;;17.08;;
60665;SDS011;59128;44.642;21.188;2024-01-06T11:06:26;18.55;;;15.27;;
60665;SDS011;59128;44.642;21.188;2024-01-06T11:09:03;18.70;;;15.82;;
60665;SDS011;59128;44.642;21.188;2024-01-06T11:11:30;17.58;;;15.18;;
60665;SDS011;59128;44.642;21.188;2024-01-06T11:16:41;21.27;;;19.07;;
60665;SDS011;59128;44.642;21.188;2024-01-06T11:21:53;16.35;;;12.48;;
60665;SDS011;59128;44.642;21.188;2024-01-06T11:24:19;21.45;;;18.48;;
60665;SDS011;59128;44.642;21.188;2024-01-06T11:26:49;20.30;;;16.17;;
60665;SDS011;59128;44.642;21.188;2024-01-06T11:29:15;31.20;;;22.23;;
60665;SDS011;59128;44.642;21.188;2024-01-06T11:31:42;34.50;;;28.05;;
60665;SDS011;59128;44.642;21.188;2024-01-06T11:34:17;20.30;;;15.93;;
60665;SDS011;59128;44.642;21.188;2024-01-06T11:36:50;57.72;;;48.38;;
60665;SDS011;59128;44.642;21.188;2024-01-06T11:39:35;58.97;;;49.30;;
60665;SDS011;59128;44.642;21.188;2024-01-06T11:42:03;32.53;;;25.10;;
60665;SDS011;59128;44.642;21.188;2024-01-06T11:44:29;29.67;;;23.23;;
60665;SDS011;59128;44.642;21.188;2024-01-06T11:46:56;17.60;;;14.60;;
60665;SDS011;59128;44.642;21.188;2024-01-06T11:49:22;43.33;;;37.90;;
60665;SDS011;59128;44.642;21.188;2024-01-06T11:51:53;43.13;;;38.27;;
60665;SDS011;59128;44.642;21.188;2024-01-06T11:54:20;52.72;;;43.83;;
60665;SDS011;59128;44.642;21.188;2024-01-06T11:56:46;41.08;;;27.95;;
60665;SDS011;59128;44.642;21.188;2024-01-06T11:59:12;39.03;;;25.25;;
60665;SDS011;59128;44.642;21.188;2024-01-06T12:01:38;32.60;;;22.55;;
60665;SDS011;59128;44.642;21.188;2024-01-06T12:04:05;40.07;;;31.50;;
60665;SDS011;59128;44.642;21.188;2024-01-06T12:06:31;29.73;;;22.33;;
60665;SDS011;59128;44.642;21.188;2024-01-06T12:09:07;24.45;;;20.13;;
60665;SDS011;59128;44.642;21.188;2024-01-06T12:11:33;23.70;;;20.55;;
60665;SDS011;59128;44.642;21.188;2024-01-06T12:13:59;17.95;;;13.73;;
60665;SDS011;59128;44.642;21.188;2024-01-06T12:16:25;19.67;;;14.80;;
60665;SDS011;59128;44.642;21.188;2024-01-06T12:18:55;32.28;;;26.25;;
60665;SDS011;59128;44.642;21.188;2024-01-06T12:21:22;22.53;;;16.60;;
60665;SDS011;59128;44.642;21.188;2024-01-06T12:23:48;26.17;;;18.60;;
60665;SDS011;59128;44.642;21.188;2024-01-06T12:26:16;18.15;;;13.65;;
60665;SDS011;59128;44.642;21.188;2024-01-06T12:28:48;16.27;;;11.02;;
60665;SDS011;59128;44.642;21.188;2024-01-06T12:31:15;15.47;;;10.97;;
60665;SDS011;59128;44.642;21.188;2024-01-06T12:33:41;17.98;;;10.88;;
60665;SDS011;59128;44.642;21.188;2024-01-06T12:36:07;18.27;;;12.80;;
60665;SDS011;59128;44.642;21.188;2024-01-06T12:38:34;21.42;;;16.58;;
60665;SDS011;59128;44.642;21.188;2024-01-06T12:41:00;26.45;;;20.50;;
60665;SDS011;59128;44.642;21.188;2024-01-06T12:43:27;29.52;;;22.80;;
60665;SDS011;59128;44.642;21.188;2024-01-06T12:45:54;36.53;;;28.67;;
60665;SDS011;59128;44.642;21.188;2024-01-06T12:48:22;19.33;;;16.20;;
60665;SDS011;59128;44.642;21.188;2024-01-06T12:50:48;33.90;;;30.23;;
60665;SDS011;59128;44.642;21.188;2024-01-06T12:53:14;26.40;;;20.55;;
60665;SDS011;59128;44.642;21.188;2024-01-06T12:55:42;31.65;;;24.92;;
60665;SDS011;59128;44.642;21.188;2024-01-06T12:58:08;19.20;;;15.20;;
60665;SDS011;59128;44.642;21.188;2024-01-06T13:00:34;25.10;;;17.80;;
60665;SDS011;59128;44.642;21.188;2024-01-06T13:03:00;19.48;;;13.40;;
60665;SDS011;59128;44.642;21.188;2024-01-06T13:05:26;16.67;;;10.98;;
60665;SDS011;59128;44.642;21.188;2024-01-06T13:07:52;19.13;;;13.17;;
60665;SDS011;59128;44.642;21.188;2024-01-06T13:10:18;18.35;;;12.05;;
60665;SDS011;59128;44.642;21.188;2024-01-06T13:12:44;20.98;;;14.80;;
60665;SDS011;59128;44.642;21.188;2024-01-06T13:15:11;18.17;;;12.90;;
60665;SDS011;59128;44.642;21.188;2024-01-06T13:17:37;23.27;;;15.20;;
60665;SDS011;59128;44.642;21.188;2024-01-06T13:20:04;19.83;;;14.70;;
60665;SDS011;59128;44.642;21.188;2024-01-06T13:22:30;13.20;;;8.73;;
60665;SDS011;59128;44.642;21.188;2024-01-06T13:24:56;22.90;;;16.45;;
60665;SDS011;59128;44.642;21.188;2024-01-06T13:27:24;30.67;;;21.92;;
60665;SDS011;59128;44.642;21.188;2024-01-06T13:29:50;23.17;;;17.27;;
60665;SDS011;59128;44.642;21.188;2024-01-06T13:32:16;22.13;;;16.83;;
60665;SDS011;59128;44.642;21.188;2024-01-06T13:34:44;16.92;;;12.13;;
60665;SDS011;59128;44.642;21.188;2024-01-06T13:37:10;15.60;;;8.88;;
60665;SDS011;59128;44.642;21.188;2024-01-06T13:39:36;14.13;;;10.17;;
60665;SDS011;59128;44.642;21.188;2024-01-06T13:42:02;8.25;;;6.30;;
60665;SDS011;59128;44.642;21.188;2024-01-06T13:44:29;14.05;;;11.45;;
60665;SDS011;59128;44.642;21.188;2024-01-06T13:46:55;11.30;;;8.80;;
60665;SDS011;59128;44.642;21.188;2024-01-06T13:49:22;20.63;;;13.93;;
60665;SDS011;59128;44.642;21.188;2024-01-06T13:51:49;13.77;;;9.80;;
60665;SDS011;59128;44.642;21.188;2024-01-06T13:54:15;10.55;;;7.85;;
60665;SDS011;59128;44.642;21.188;2024-01-06T13:56:41;16.63;;;12.13;;
60665;SDS011;59128;44.642;21.188;2024-01-06T13:59:07;46.10;;;32.28;;
60665;SDS011;59128;44.642;21.188;2024-01-06T14:01:33;18.08;;;13.68;;
60665;SDS011;59128;44.642;21.188;2024-01-06T14:04:00;12.57;;;9.32;;
60665;SDS011;59128;44.642;21.188;2024-01-06T14:06:26;15.87;;;12.30;;
60665;SDS011;59128;44.642;21.188;2024-01-06T14:08:56;17.50;;;13.52;;
60665;SDS011;59128;44.642;21.188;2024-01-06T14:11:22;25.33;;;18.98;;
60665;SDS011;59128;44.642;21.188;2024-01-06T14:13:49;38.23;;;30.03;;
60665;SDS011;59128;44.642;21.188;2024-01-06T14:16:16;21.65;;;17.00;;